AXB3401 VABB-OEMA
Flight info
| Callsign | AXB3401 |
|---|---|
| Flight time | 4h 37m |
| Altitude | 36000 |
| Route | RAXET2A SAKUN V1 BIMOT V2 SUGID DCT LEGEN N563 REXOD L883 SITOL DCT ASNUR DCT DATUV DCT ITSEP ITSE1G |
| Aircraft | B38M/M-SDE1FGHILORVWXY/HB1 |
Departure
| Time | 2026-05-05 12:01 |
|---|---|
| Airport | Chhatrapati Shivaji Maharaj International Airport (VABB) |
Arrival
| Time | 2026-05-05 16:38 |
|---|---|
| Airport | Prince Mohammad Bin Abdulaziz Airport (OEMA) |
| Time | Latitude | Longitude | Altitude | Speed | Heading |
|---|---|---|---|---|---|
| 2026-05-05 11:38 | 19.09322 | 72.87206 | 52 ft | 0 kts | 337° |
| 2026-05-05 11:51 | 19.09311 | 72.87211 | 49 ft | 4 kts | 337° |
| 2026-05-05 11:51 | 19.09289 | 72.87221 | 52 ft | 2 kts | 337° |
| 2026-05-05 11:52 | 19.09267 | 72.87232 | 49 ft | 4 kts | 326° |
| 2026-05-05 11:52 | 19.09247 | 72.87251 | 52 ft | 4 kts | 305° |
| 2026-05-05 11:52 | 19.09238 | 72.87275 | 50 ft | 3 kts | 269° |
| 2026-05-05 11:52 | 19.09237 | 72.87268 | 49 ft | 4 kts | 268° |
| 2026-05-05 11:53 | 19.09237 | 72.87240 | 48 ft | 4 kts | 269° |
| 2026-05-05 11:53 | 19.09236 | 72.87212 | 49 ft | 4 kts | 269° |
| 2026-05-05 11:53 | 19.09236 | 72.87183 | 52 ft | 4 kts | 269° |
| 2026-05-05 11:53 | 19.09235 | 72.87157 | 52 ft | 4 kts | 269° |
| 2026-05-05 11:54 | 19.09235 | 72.87142 | 52 ft | 2 kts | 269° |
| 2026-05-05 11:56 | 19.09235 | 72.87121 | 52 ft | 7 kts | 269° |
| 2026-05-05 11:56 | 19.09180 | 72.87080 | 52 ft | 14 kts | 180° |
| 2026-05-05 11:56 | 19.09135 | 72.87144 | 52 ft | 12 kts | 91° |
| 2026-05-05 11:57 | 19.09133 | 72.87228 | 52 ft | 11 kts | 105° |
| 2026-05-05 11:57 | 19.09069 | 72.87270 | 49 ft | 11 kts | 156° |
| 2026-05-05 11:57 | 19.09051 | 72.87345 | 50 ft | 12 kts | 88° |
| 2026-05-05 11:57 | 19.09052 | 72.87435 | 52 ft | 13 kts | 89° |
| 2026-05-05 11:58 | 19.09053 | 72.87535 | 50 ft | 14 kts | 89° |
| 2026-05-05 11:58 | 19.09055 | 72.87644 | 51 ft | 15 kts | 88° |
| 2026-05-05 11:58 | 19.09056 | 72.87760 | 51 ft | 16 kts | 89° |
| 2026-05-05 11:58 | 19.09058 | 72.87885 | 51 ft | 18 kts | 89° |
| 2026-05-05 11:59 | 19.09059 | 72.87943 | 51 ft | 6 kts | 89° |
| 2026-05-05 11:59 | 19.09059 | 72.87990 | 51 ft | 7 kts | 89° |
| 2026-05-05 11:59 | 19.09049 | 72.88042 | 49 ft | 8 kts | 132° |
| 2026-05-05 11:59 | 19.08992 | 72.88053 | 50 ft | 10 kts | 180° |
| 2026-05-05 12:00 | 19.08914 | 72.88045 | 49 ft | 12 kts | 203° |
| 2026-05-05 12:00 | 19.08886 | 72.87971 | 49 ft | 12 kts | 272° |
| 2026-05-05 12:00 | 19.08886 | 72.87854 | 50 ft | 35 kts | 269° |
| 2026-05-05 12:00 | 19.08880 | 72.87355 | 53 ft | 100 kts | 269° |
| 2026-05-05 12:01 | 19.08866 | 72.86420 | 49 ft | 153 kts | 269° |
| 2026-05-05 12:01 | 19.08848 | 72.85163 | 209 ft | 182 kts | 269° |
| 2026-05-05 12:01 | 19.08826 | 72.83778 | 740 ft | 195 kts | 270° |
| 2026-05-05 12:01 | 19.08818 | 72.82400 | 1676 ft | 181 kts | 269° |
| 2026-05-05 12:02 | 19.08804 | 72.80998 | 2124 ft | 202 kts | 269° |
| 2026-05-05 12:02 | 19.08781 | 72.79431 | 2490 ft | 222 kts | 269° |
| 2026-05-05 12:02 | 19.08753 | 72.77777 | 3076 ft | 229 kts | 268° |
| 2026-05-05 12:02 | 19.08722 | 72.76077 | 3818 ft | 238 kts | 269° |
| 2026-05-05 12:03 | 19.08760 | 72.74266 | 4305 ft | 255 kts | 276° |
| 2026-05-05 12:03 | 19.08981 | 72.72363 | 4911 ft | 265 kts | 276° |
| 2026-05-05 12:03 | 19.09203 | 72.70412 | 5639 ft | 269 kts | 276° |
| 2026-05-05 12:03 | 19.09423 | 72.68435 | 6374 ft | 273 kts | 276° |
| 2026-05-05 12:04 | 19.09641 | 72.66435 | 7100 ft | 276 kts | 276° |
| 2026-05-05 12:04 | 19.09863 | 72.64395 | 7748 ft | 282 kts | 276° |
| 2026-05-05 12:04 | 19.10086 | 72.62320 | 8497 ft | 284 kts | 276° |
| 2026-05-05 12:04 | 19.10311 | 72.60238 | 9204 ft | 288 kts | 275° |
| 2026-05-05 12:05 | 19.10530 | 72.58203 | 9920 ft | 290 kts | 276° |
| 2026-05-05 12:05 | 19.10764 | 72.56020 | 10308 ft | 307 kts | 276° |
| 2026-05-05 12:05 | 19.11013 | 72.53701 | 10536 ft | 327 kts | 276° |
| 2026-05-05 12:05 | 19.11276 | 72.51243 | 10779 ft | 344 kts | 276° |
| 2026-05-05 12:06 | 19.11546 | 72.48716 | 11133 ft | 355 kts | 276° |
| 2026-05-05 12:06 | 19.11824 | 72.46114 | 11808 ft | 356 kts | 276° |
| 2026-05-05 12:06 | 19.12105 | 72.43479 | 12348 ft | 362 kts | 276° |
| 2026-05-05 12:06 | 19.12386 | 72.40837 | 13068 ft | 361 kts | 276° |
| 2026-05-05 12:07 | 19.12669 | 72.38177 | 13645 ft | 366 kts | 276° |
| 2026-05-05 12:07 | 19.12954 | 72.35500 | 14259 ft | 366 kts | 276° |
| 2026-05-05 12:07 | 19.13239 | 72.32820 | 14767 ft | 371 kts | 276° |
| 2026-05-05 12:07 | 19.13524 | 72.30129 | 15293 ft | 373 kts | 276° |
| 2026-05-05 12:08 | 19.13815 | 72.27373 | 15803 ft | 377 kts | 277° |
| 2026-05-05 12:08 | 19.14109 | 72.24597 | 16282 ft | 381 kts | 277° |
| 2026-05-05 12:08 | 19.14402 | 72.21805 | 16844 ft | 383 kts | 277° |
| 2026-05-05 12:08 | 19.14695 | 72.19026 | 17323 ft | 386 kts | 277° |
| 2026-05-05 12:09 | 19.14992 | 72.16200 | 17828 ft | 389 kts | 277° |
| 2026-05-05 12:09 | 19.15293 | 72.13342 | 18237 ft | 393 kts | 277° |
| 2026-05-05 12:09 | 19.15696 | 72.10480 | 18636 ft | 394 kts | 287° |
| 2026-05-05 12:09 | 19.16757 | 72.07838 | 19069 ft | 393 kts | 298° |
| 2026-05-05 12:10 | 19.18008 | 72.05240 | 19436 ft | 396 kts | 298° |
| 2026-05-05 12:10 | 19.19268 | 72.02672 | 19858 ft | 397 kts | 298° |
| 2026-05-05 12:10 | 19.20559 | 72.00073 | 20257 ft | 399 kts | 299° |
| 2026-05-05 12:10 | 19.21864 | 71.97467 | 20660 ft | 401 kts | 299° |
| 2026-05-05 12:11 | 19.23174 | 71.94858 | 21053 ft | 402 kts | 299° |
| 2026-05-05 12:11 | 19.24491 | 71.92239 | 21461 ft | 403 kts | 299° |
| 2026-05-05 12:11 | 19.25815 | 71.89607 | 21822 ft | 405 kts | 299° |
| 2026-05-05 12:11 | 19.27143 | 71.86963 | 22165 ft | 407 kts | 300° |
| 2026-05-05 12:12 | 19.28453 | 71.84356 | 22510 ft | 409 kts | 300° |
| 2026-05-05 12:12 | 19.29791 | 71.81690 | 22860 ft | 410 kts | 300° |
| 2026-05-05 12:12 | 19.31136 | 71.79012 | 23188 ft | 412 kts | 300° |
| 2026-05-05 12:12 | 19.32487 | 71.76319 | 23497 ft | 414 kts | 300° |
| 2026-05-05 12:13 | 19.33838 | 71.73623 | 23766 ft | 415 kts | 300° |
| 2026-05-05 12:13 | 19.35197 | 71.70912 | 24003 ft | 417 kts | 299° |
| 2026-05-05 12:13 | 19.36561 | 71.68188 | 24247 ft | 419 kts | 299° |
| 2026-05-05 12:13 | 19.37931 | 71.65452 | 24496 ft | 420 kts | 299° |
| 2026-05-05 12:14 | 19.39285 | 71.62748 | 24736 ft | 422 kts | 299° |
| 2026-05-05 12:14 | 19.40655 | 71.60009 | 24982 ft | 424 kts | 299° |
| 2026-05-05 12:14 | 19.42044 | 71.57232 | 25227 ft | 426 kts | 299° |
| 2026-05-05 12:14 | 19.43436 | 71.54446 | 25467 ft | 427 kts | 299° |
| 2026-05-05 12:15 | 19.44834 | 71.51648 | 25690 ft | 430 kts | 299° |
| 2026-05-05 12:15 | 19.46216 | 71.48880 | 25927 ft | 431 kts | 298° |
| 2026-05-05 12:15 | 19.47624 | 71.46060 | 26158 ft | 433 kts | 298° |
| 2026-05-05 12:15 | 19.49034 | 71.43233 | 26398 ft | 434 kts | 298° |
| 2026-05-05 12:16 | 19.50452 | 71.40388 | 26665 ft | 435 kts | 298° |
| 2026-05-05 12:16 | 19.51860 | 71.37563 | 26926 ft | 436 kts | 298° |
| 2026-05-05 12:16 | 19.53282 | 71.34709 | 27140 ft | 438 kts | 298° |
| 2026-05-05 12:16 | 19.54691 | 71.31879 | 27367 ft | 439 kts | 298° |
| 2026-05-05 12:17 | 19.56123 | 71.29001 | 27591 ft | 441 kts | 298° |
| 2026-05-05 12:17 | 19.57562 | 71.26109 | 27810 ft | 443 kts | 298° |
| 2026-05-05 12:17 | 19.58987 | 71.23244 | 28024 ft | 444 kts | 298° |
| 2026-05-05 12:17 | 19.60423 | 71.20337 | 28234 ft | 446 kts | 296° |
| 2026-05-05 12:18 | 19.61513 | 71.17240 | 28443 ft | 447 kts | 288° |
| 2026-05-05 12:18 | 19.62487 | 71.14125 | 28638 ft | 449 kts | 289° |
| 2026-05-05 12:18 | 19.63479 | 71.10971 | 28838 ft | 451 kts | 289° |
| 2026-05-05 12:18 | 19.64473 | 71.07798 | 29054 ft | 452 kts | 289° |
| 2026-05-05 12:19 | 19.65464 | 71.04626 | 29252 ft | 454 kts | 289° |
| 2026-05-05 12:19 | 19.66459 | 71.01442 | 29453 ft | 455 kts | 289° |
| 2026-05-05 12:19 | 19.67455 | 70.98250 | 29645 ft | 457 kts | 288° |
| 2026-05-05 12:19 | 19.68440 | 70.95090 | 29832 ft | 458 kts | 288° |
| 2026-05-05 12:20 | 19.69441 | 70.91878 | 30002 ft | 459 kts | 288° |
| 2026-05-05 12:20 | 19.70440 | 70.88672 | 30177 ft | 460 kts | 288° |
| 2026-05-05 12:20 | 19.71446 | 70.85441 | 30405 ft | 460 kts | 288° |
| 2026-05-05 12:20 | 19.72447 | 70.82219 | 30638 ft | 459 kts | 288° |
| 2026-05-05 12:21 | 19.73453 | 70.78984 | 30875 ft | 459 kts | 288° |
| 2026-05-05 12:21 | 19.74438 | 70.75812 | 31129 ft | 458 kts | 289° |
| 2026-05-05 12:21 | 19.75431 | 70.72611 | 31425 ft | 456 kts | 289° |
| 2026-05-05 12:21 | 19.76422 | 70.69416 | 31713 ft | 454 kts | 289° |
| 2026-05-05 12:22 | 19.77410 | 70.66229 | 31966 ft | 453 kts | 288° |
| 2026-05-05 12:22 | 19.78381 | 70.63093 | 32218 ft | 452 kts | 288° |
| 2026-05-05 12:22 | 19.79360 | 70.59930 | 32477 ft | 451 kts | 288° |
| 2026-05-05 12:22 | 19.80341 | 70.56755 | 32733 ft | 450 kts | 288° |
| 2026-05-05 12:23 | 19.81321 | 70.53585 | 32981 ft | 449 kts | 288° |
| 2026-05-05 12:23 | 19.82296 | 70.50430 | 33214 ft | 449 kts | 288° |
| 2026-05-05 12:23 | 19.83258 | 70.47313 | 33452 ft | 448 kts | 288° |
| 2026-05-05 12:23 | 19.84228 | 70.44168 | 33687 ft | 448 kts | 288° |
| 2026-05-05 12:24 | 19.85200 | 70.41015 | 33917 ft | 447 kts | 288° |
| 2026-05-05 12:24 | 19.86160 | 70.37899 | 34121 ft | 447 kts | 288° |
| 2026-05-05 12:24 | 19.87053 | 70.34725 | 34300 ft | 446 kts | 282° |
| 2026-05-05 12:24 | 19.87638 | 70.31526 | 34491 ft | 446 kts | 282° |
| 2026-05-05 12:25 | 19.88231 | 70.28289 | 34655 ft | 446 kts | 282° |
| 2026-05-05 12:25 | 19.88818 | 70.25041 | 34836 ft | 446 kts | 282° |
| 2026-05-05 12:25 | 19.89397 | 70.21811 | 35011 ft | 445 kts | 282° |
| 2026-05-05 12:25 | 19.89978 | 70.18572 | 35183 ft | 445 kts | 282° |
| 2026-05-05 12:26 | 19.90556 | 70.15338 | 35328 ft | 446 kts | 282° |
| 2026-05-05 12:26 | 19.91130 | 70.12123 | 35486 ft | 446 kts | 282° |
| 2026-05-05 12:26 | 19.91709 | 70.08883 | 35653 ft | 445 kts | 282° |
| 2026-05-05 12:26 | 19.92279 | 70.05683 | 35800 ft | 445 kts | 282° |
| 2026-05-05 12:27 | 19.93434 | 69.99192 | 35834 ft | 445 kts | 282° |
| 2026-05-05 12:27 | 19.94574 | 69.92775 | 35838 ft | 444 kts | 282° |
| 2026-05-05 12:28 | 19.95719 | 69.86314 | 35840 ft | 444 kts | 282° |
| 2026-05-05 12:28 | 19.96858 | 69.79869 | 35837 ft | 444 kts | 282° |
| 2026-05-05 12:29 | 19.97993 | 69.73441 | 35836 ft | 444 kts | 282° |
| 2026-05-05 12:29 | 19.99130 | 69.66977 | 35838 ft | 444 kts | 281° |
| 2026-05-05 12:30 | 20.00260 | 69.60544 | 35838 ft | 444 kts | 281° |
| 2026-05-05 12:30 | 20.01392 | 69.54085 | 35837 ft | 444 kts | 281° |
| 2026-05-05 12:31 | 20.02517 | 69.47652 | 35838 ft | 445 kts | 281° |
| 2026-05-05 12:31 | 20.03649 | 69.41164 | 35833 ft | 445 kts | 281° |
| 2026-05-05 12:32 | 20.04771 | 69.34722 | 35841 ft | 445 kts | 281° |
| 2026-05-05 12:32 | 20.05896 | 69.28247 | 35838 ft | 445 kts | 281° |
| 2026-05-05 12:33 | 20.07017 | 69.21780 | 35840 ft | 445 kts | 281° |
| 2026-05-05 12:33 | 20.08137 | 69.15299 | 35840 ft | 445 kts | 281° |
| 2026-05-05 12:34 | 20.09252 | 69.08838 | 35839 ft | 445 kts | 281° |
| 2026-05-05 12:34 | 20.10367 | 69.02363 | 35840 ft | 445 kts | 281° |
| 2026-05-05 12:35 | 20.11481 | 68.95879 | 35840 ft | 445 kts | 281° |
| 2026-05-05 12:35 | 20.12588 | 68.89416 | 35840 ft | 445 kts | 281° |
| 2026-05-05 12:36 | 20.13699 | 68.82922 | 35839 ft | 446 kts | 281° |
| 2026-05-05 12:36 | 20.14799 | 68.76474 | 35843 ft | 445 kts | 281° |
| 2026-05-05 12:37 | 20.15901 | 68.69998 | 35838 ft | 444 kts | 281° |
| 2026-05-05 12:37 | 20.17003 | 68.63512 | 35841 ft | 445 kts | 281° |
| 2026-05-05 12:38 | 20.18095 | 68.57067 | 35841 ft | 445 kts | 281° |
| 2026-05-05 12:38 | 20.19189 | 68.50593 | 35836 ft | 445 kts | 281° |
| 2026-05-05 12:39 | 20.20286 | 68.44091 | 35841 ft | 445 kts | 281° |
| 2026-05-05 12:39 | 20.21374 | 68.37626 | 35841 ft | 445 kts | 281° |
| 2026-05-05 12:40 | 20.22465 | 68.31123 | 35840 ft | 446 kts | 281° |
| 2026-05-05 12:40 | 20.23550 | 68.24648 | 35840 ft | 446 kts | 281° |
| 2026-05-05 12:41 | 20.24630 | 68.18179 | 35843 ft | 446 kts | 281° |
| 2026-05-05 12:41 | 20.25720 | 68.11643 | 35838 ft | 446 kts | 281° |
| 2026-05-05 12:42 | 20.26797 | 68.05170 | 35841 ft | 446 kts | 281° |
| 2026-05-05 12:42 | 20.27875 | 67.98669 | 35840 ft | 446 kts | 281° |
| 2026-05-05 12:43 | 20.28940 | 67.92240 | 35843 ft | 446 kts | 281° |
| 2026-05-05 12:43 | 20.30009 | 67.85765 | 35843 ft | 446 kts | 281° |
| 2026-05-05 12:44 | 20.31077 | 67.79279 | 35843 ft | 446 kts | 281° |
| 2026-05-05 12:44 | 20.32147 | 67.72770 | 35846 ft | 446 kts | 281° |
| 2026-05-05 12:45 | 20.33034 | 67.67365 | 35837 ft | 444 kts | 281° |
| 2026-05-05 12:45 | 20.34097 | 67.60869 | 35833 ft | 444 kts | 281° |
| 2026-05-05 12:46 | 20.35151 | 67.54412 | 35839 ft | 444 kts | 281° |
| 2026-05-05 12:46 | 20.36207 | 67.47925 | 35838 ft | 445 kts | 281° |
| 2026-05-05 12:47 | 20.37265 | 67.41413 | 35840 ft | 445 kts | 281° |
| 2026-05-05 12:47 | 20.38312 | 67.34957 | 35838 ft | 445 kts | 281° |
| 2026-05-05 12:48 | 20.39365 | 67.28441 | 35838 ft | 445 kts | 281° |
| 2026-05-05 12:48 | 20.40407 | 67.21979 | 35835 ft | 445 kts | 281° |
| 2026-05-05 12:49 | 20.41457 | 67.15457 | 35836 ft | 445 kts | 281° |
| 2026-05-05 12:49 | 20.42497 | 67.08976 | 35838 ft | 445 kts | 281° |
| 2026-05-05 12:50 | 20.43541 | 67.02452 | 35838 ft | 445 kts | 281° |
| 2026-05-05 12:50 | 20.44579 | 66.95954 | 35837 ft | 445 kts | 280° |
| 2026-05-05 12:51 | 20.45612 | 66.89474 | 35836 ft | 445 kts | 280° |
| 2026-05-05 12:51 | 20.46648 | 66.82951 | 35835 ft | 446 kts | 280° |
| 2026-05-05 12:52 | 20.47684 | 66.76421 | 35834 ft | 446 kts | 280° |
| 2026-05-05 12:52 | 20.48706 | 66.69959 | 35835 ft | 446 kts | 280° |
| 2026-05-05 12:53 | 20.49737 | 66.63421 | 35835 ft | 446 kts | 280° |
| 2026-05-05 12:53 | 20.50759 | 66.56925 | 35834 ft | 446 kts | 280° |
| 2026-05-05 12:54 | 20.52298 | 66.47118 | 35838 ft | 446 kts | 280° |
| 2026-05-05 12:55 | 20.53306 | 66.40667 | 35837 ft | 446 kts | 280° |
| 2026-05-05 12:55 | 20.54319 | 66.34176 | 35837 ft | 446 kts | 280° |
| 2026-05-05 12:56 | 20.55336 | 66.27640 | 35838 ft | 446 kts | 280° |
| 2026-05-05 12:56 | 20.56352 | 66.21095 | 35835 ft | 446 kts | 280° |
| 2026-05-05 12:57 | 20.57356 | 66.14610 | 35837 ft | 447 kts | 280° |
| 2026-05-05 12:57 | 20.58366 | 66.08068 | 35837 ft | 447 kts | 280° |
| 2026-05-05 12:58 | 20.59375 | 66.01512 | 35837 ft | 447 kts | 280° |
| 2026-05-05 12:58 | 20.60375 | 65.95006 | 35837 ft | 447 kts | 280° |
| 2026-05-05 12:59 | 20.61376 | 65.88468 | 35835 ft | 447 kts | 280° |
| 2026-05-05 12:59 | 20.62375 | 65.81937 | 35837 ft | 447 kts | 280° |
| 2026-05-05 13:00 | 20.63873 | 65.72100 | 35839 ft | 447 kts | 280° |
| 2026-05-05 13:01 | 20.65855 | 65.59026 | 35834 ft | 447 kts | 280° |
| 2026-05-05 13:01 | 20.66847 | 65.52463 | 35838 ft | 448 kts | 280° |
| 2026-05-05 13:02 | 20.67838 | 65.45880 | 35837 ft | 447 kts | 280° |
| 2026-05-05 13:02 | 20.68816 | 65.39372 | 35837 ft | 448 kts | 280° |
| 2026-05-05 13:03 | 20.69800 | 65.32806 | 35838 ft | 448 kts | 280° |
| 2026-05-05 13:03 | 20.70783 | 65.26229 | 35835 ft | 448 kts | 279° |
| 2026-05-05 13:04 | 20.71757 | 65.19690 | 35837 ft | 448 kts | 279° |
| 2026-05-05 13:04 | 20.72734 | 65.13123 | 35837 ft | 448 kts | 279° |
| 2026-05-05 13:05 | 20.73710 | 65.06538 | 35835 ft | 448 kts | 279° |
| 2026-05-05 13:05 | 20.74681 | 64.99971 | 35835 ft | 448 kts | 279° |
| 2026-05-05 13:06 | 20.75653 | 64.93380 | 35834 ft | 449 kts | 279° |
| 2026-05-05 13:06 | 20.76619 | 64.86809 | 35834 ft | 449 kts | 279° |
| 2026-05-05 13:07 | 20.77584 | 64.80228 | 35834 ft | 449 kts | 279° |
| 2026-05-05 13:07 | 20.78549 | 64.73629 | 35835 ft | 449 kts | 279° |
| 2026-05-05 13:08 | 20.79505 | 64.67079 | 35836 ft | 449 kts | 279° |
| 2026-05-05 13:08 | 20.80464 | 64.60480 | 35834 ft | 448 kts | 279° |
| 2026-05-05 13:09 | 20.81414 | 64.53931 | 35835 ft | 448 kts | 279° |
| 2026-05-05 13:09 | 20.82369 | 64.47329 | 35832 ft | 448 kts | 279° |
| 2026-05-05 13:10 | 20.83322 | 64.40726 | 35831 ft | 448 kts | 279° |
| 2026-05-05 13:10 | 20.84265 | 64.34170 | 35827 ft | 449 kts | 279° |
| 2026-05-05 13:11 | 20.85210 | 64.27585 | 35830 ft | 450 kts | 279° |
| 2026-05-05 13:11 | 20.86158 | 64.20958 | 35829 ft | 449 kts | 279° |
| 2026-05-05 13:12 | 20.87094 | 64.14390 | 35829 ft | 449 kts | 279° |
| 2026-05-05 13:12 | 20.88039 | 64.07754 | 35829 ft | 449 kts | 279° |
| 2026-05-05 13:13 | 20.88968 | 64.01200 | 35826 ft | 450 kts | 279° |
| 2026-05-05 13:13 | 20.89905 | 63.94576 | 35829 ft | 450 kts | 279° |
| 2026-05-05 13:14 | 20.90842 | 63.87936 | 35829 ft | 450 kts | 279° |
| 2026-05-05 13:14 | 20.91768 | 63.81348 | 35829 ft | 450 kts | 279° |
| 2026-05-05 13:15 | 20.92695 | 63.74743 | 35829 ft | 450 kts | 279° |
| 2026-05-05 13:15 | 20.93623 | 63.68102 | 35833 ft | 450 kts | 279° |
| 2026-05-05 13:16 | 20.94542 | 63.61510 | 35828 ft | 450 kts | 279° |
| 2026-05-05 13:16 | 20.95462 | 63.54895 | 35829 ft | 450 kts | 279° |
| 2026-05-05 13:17 | 20.96379 | 63.48282 | 35829 ft | 450 kts | 279° |
| 2026-05-05 13:17 | 20.97295 | 63.41650 | 35826 ft | 450 kts | 279° |
| 2026-05-05 13:18 | 20.98210 | 63.35015 | 35830 ft | 451 kts | 279° |
| 2026-05-05 13:18 | 20.99119 | 63.28402 | 35829 ft | 451 kts | 279° |
| 2026-05-05 13:19 | 21.00027 | 63.21773 | 35826 ft | 451 kts | 279° |
| 2026-05-05 13:19 | 21.00930 | 63.15161 | 35826 ft | 451 kts | 279° |
| 2026-05-05 13:20 | 21.01837 | 63.08504 | 35829 ft | 451 kts | 279° |
| 2026-05-05 13:20 | 21.02737 | 63.01881 | 35829 ft | 451 kts | 279° |
| 2026-05-05 13:21 | 21.03636 | 62.95242 | 35827 ft | 451 kts | 279° |
| 2026-05-05 13:21 | 21.04528 | 62.88635 | 35826 ft | 451 kts | 279° |
| 2026-05-05 13:22 | 21.05424 | 62.81975 | 35824 ft | 451 kts | 279° |
| 2026-05-05 13:22 | 21.06312 | 62.75356 | 35824 ft | 451 kts | 278° |
| 2026-05-05 13:23 | 21.07197 | 62.68742 | 35825 ft | 450 kts | 278° |
| 2026-05-05 13:23 | 21.08082 | 62.62109 | 35826 ft | 449 kts | 278° |
| 2026-05-05 13:24 | 21.08966 | 62.55462 | 35827 ft | 450 kts | 278° |
| 2026-05-05 13:24 | 21.09845 | 62.48830 | 35824 ft | 450 kts | 278° |
| 2026-05-05 13:25 | 21.10714 | 62.42261 | 35823 ft | 449 kts | 278° |
| 2026-05-05 13:25 | 21.11590 | 62.35623 | 35826 ft | 450 kts | 278° |
| 2026-05-05 13:26 | 21.12464 | 62.28978 | 35827 ft | 449 kts | 278° |
| 2026-05-05 13:26 | 21.13334 | 62.22342 | 35819 ft | 449 kts | 278° |
| 2026-05-05 13:27 | 21.14194 | 62.15767 | 35824 ft | 450 kts | 278° |
| 2026-05-05 13:27 | 21.15061 | 62.09117 | 35823 ft | 450 kts | 278° |
| 2026-05-05 13:28 | 21.15921 | 62.02497 | 35823 ft | 450 kts | 278° |
| 2026-05-05 13:28 | 21.16785 | 61.95830 | 35823 ft | 450 kts | 278° |
| 2026-05-05 13:29 | 21.17637 | 61.89233 | 35821 ft | 450 kts | 278° |
| 2026-05-05 13:29 | 21.18490 | 61.82605 | 35824 ft | 451 kts | 278° |
| 2026-05-05 13:30 | 21.19344 | 61.75952 | 35827 ft | 450 kts | 278° |
| 2026-05-05 13:30 | 21.20192 | 61.69324 | 35821 ft | 448 kts | 278° |
| 2026-05-05 13:31 | 21.20824 | 61.63810 | 35813 ft | 448 kts | 272° |
| 2026-05-05 13:31 | 21.21030 | 61.57122 | 35821 ft | 449 kts | 272° |
| 2026-05-05 13:32 | 21.21250 | 61.49332 | 35821 ft | 449 kts | 272° |
| 2026-05-05 13:32 | 21.21435 | 61.42630 | 35818 ft | 449 kts | 272° |
| 2026-05-05 13:33 | 21.21585 | 61.37087 | 35815 ft | 449 kts | 272° |
| 2026-05-05 13:33 | 21.21764 | 61.30412 | 35814 ft | 449 kts | 272° |
| 2026-05-05 13:34 | 21.21940 | 61.23711 | 35816 ft | 449 kts | 272° |
| 2026-05-05 13:34 | 21.22114 | 61.17015 | 35815 ft | 449 kts | 272° |
| 2026-05-05 13:35 | 21.22286 | 61.10326 | 35815 ft | 449 kts | 272° |
| 2026-05-05 13:35 | 21.22453 | 61.03667 | 35812 ft | 449 kts | 272° |
| 2026-05-05 13:36 | 21.22620 | 60.96940 | 35813 ft | 450 kts | 272° |
| 2026-05-05 13:36 | 21.22783 | 60.90264 | 35812 ft | 450 kts | 272° |
| 2026-05-05 13:37 | 21.22944 | 60.83573 | 35813 ft | 450 kts | 272° |
| 2026-05-05 13:37 | 21.23102 | 60.76846 | 35813 ft | 450 kts | 272° |
| 2026-05-05 13:38 | 21.23259 | 60.70122 | 35809 ft | 451 kts | 272° |
| 2026-05-05 13:38 | 21.23411 | 60.63437 | 35807 ft | 451 kts | 272° |
| 2026-05-05 13:39 | 21.23562 | 60.56728 | 35809 ft | 451 kts | 272° |
| 2026-05-05 13:39 | 21.23710 | 60.50002 | 35807 ft | 451 kts | 272° |
| 2026-05-05 13:40 | 21.23855 | 60.43283 | 35812 ft | 449 kts | 272° |
| 2026-05-05 13:40 | 21.23996 | 60.36631 | 35803 ft | 448 kts | 272° |
| 2026-05-05 13:41 | 21.24135 | 60.29967 | 35807 ft | 448 kts | 272° |
| 2026-05-05 13:41 | 21.24272 | 60.23310 | 35802 ft | 448 kts | 272° |
| 2026-05-05 13:42 | 21.24407 | 60.16610 | 35794 ft | 448 kts | 272° |
| 2026-05-05 13:42 | 21.24533 | 60.09990 | 35800 ft | 449 kts | 272° |
| 2026-05-05 13:43 | 21.24659 | 60.03347 | 35802 ft | 449 kts | 272° |
| 2026-05-05 13:43 | 21.24783 | 59.96654 | 35801 ft | 449 kts | 272° |
| 2026-05-05 13:44 | 21.24904 | 59.89959 | 35799 ft | 449 kts | 272° |
| 2026-05-05 13:44 | 21.25023 | 59.83297 | 35798 ft | 449 kts | 272° |
| 2026-05-05 13:45 | 21.25139 | 59.76601 | 35796 ft | 449 kts | 272° |
| 2026-05-05 13:45 | 21.25252 | 59.69905 | 35796 ft | 449 kts | 271° |
| 2026-05-05 13:46 | 21.25363 | 59.63254 | 35796 ft | 449 kts | 271° |
| 2026-05-05 13:46 | 21.25471 | 59.56548 | 35788 ft | 449 kts | 271° |
| 2026-05-05 13:47 | 21.25577 | 59.49856 | 35796 ft | 449 kts | 271° |
| 2026-05-05 13:47 | 21.25680 | 59.43157 | 35793 ft | 449 kts | 271° |
| 2026-05-05 13:48 | 21.25780 | 59.36487 | 35796 ft | 449 kts | 271° |
| 2026-05-05 13:48 | 21.25877 | 59.29792 | 35792 ft | 449 kts | 271° |
| 2026-05-05 13:49 | 21.25973 | 59.23079 | 35793 ft | 450 kts | 271° |
| 2026-05-05 13:49 | 21.26065 | 59.16393 | 35792 ft | 450 kts | 271° |
| 2026-05-05 13:50 | 21.26155 | 59.09684 | 35798 ft | 449 kts | 271° |
| 2026-05-05 13:50 | 21.26241 | 59.03029 | 35794 ft | 448 kts | 271° |
| 2026-05-05 13:51 | 21.26326 | 58.96357 | 35794 ft | 449 kts | 271° |
| 2026-05-05 13:51 | 21.26407 | 58.89669 | 35793 ft | 449 kts | 271° |
| 2026-05-05 13:52 | 21.26487 | 58.82955 | 35790 ft | 449 kts | 271° |
| 2026-05-05 13:52 | 21.26561 | 58.76285 | 35788 ft | 449 kts | 271° |
| 2026-05-05 13:53 | 21.26632 | 58.69606 | 35782 ft | 449 kts | 271° |
| 2026-05-05 13:53 | 21.26700 | 58.62949 | 35782 ft | 449 kts | 271° |
| 2026-05-05 13:54 | 21.26766 | 58.56255 | 35776 ft | 449 kts | 271° |
| 2026-05-05 13:54 | 21.26829 | 58.49565 | 35777 ft | 449 kts | 271° |
| 2026-05-05 13:55 | 21.26890 | 58.42874 | 35770 ft | 449 kts | 271° |
| 2026-05-05 13:55 | 21.26948 | 58.36180 | 35765 ft | 449 kts | 271° |
| 2026-05-05 13:56 | 21.27003 | 58.29513 | 35765 ft | 449 kts | 271° |
| 2026-05-05 13:56 | 21.27056 | 58.22853 | 35758 ft | 449 kts | 271° |
| 2026-05-05 13:57 | 21.27106 | 58.16176 | 35757 ft | 448 kts | 271° |
| 2026-05-05 13:57 | 21.27153 | 58.09477 | 35754 ft | 449 kts | 271° |
| 2026-05-05 13:58 | 21.27198 | 58.02781 | 35742 ft | 448 kts | 271° |
| 2026-05-05 13:58 | 21.27240 | 57.96113 | 35746 ft | 449 kts | 271° |
| 2026-05-05 13:59 | 21.27298 | 57.86082 | 35741 ft | 449 kts | 271° |
| 2026-05-05 14:00 | 21.27345 | 57.77160 | 35739 ft | 448 kts | 271° |
| 2026-05-05 14:00 | 21.27382 | 57.69366 | 35737 ft | 448 kts | 271° |
| 2026-05-05 14:01 | 21.27411 | 57.62698 | 35735 ft | 448 kts | 271° |
| 2026-05-05 14:01 | 21.27437 | 57.56052 | 35725 ft | 448 kts | 271° |
| 2026-05-05 14:02 | 21.27461 | 57.49373 | 35728 ft | 448 kts | 271° |
| 2026-05-05 14:02 | 21.27482 | 57.42681 | 35722 ft | 448 kts | 270° |
| 2026-05-05 14:03 | 21.27500 | 57.36056 | 35720 ft | 448 kts | 270° |
| 2026-05-05 14:03 | 21.27516 | 57.29355 | 35722 ft | 448 kts | 270° |
| 2026-05-05 14:04 | 21.27529 | 57.22668 | 35720 ft | 448 kts | 270° |
| 2026-05-05 14:04 | 21.27540 | 57.15983 | 35719 ft | 448 kts | 270° |
| 2026-05-05 14:05 | 21.27548 | 57.09317 | 35720 ft | 448 kts | 270° |
| 2026-05-05 14:05 | 21.27554 | 57.02667 | 35720 ft | 449 kts | 270° |
| 2026-05-05 14:06 | 21.27558 | 56.95974 | 35721 ft | 449 kts | 270° |
| 2026-05-05 14:06 | 21.27553 | 56.89270 | 35719 ft | 449 kts | 270° |
| 2026-05-05 14:07 | 21.27547 | 56.82585 | 35719 ft | 449 kts | 270° |
| 2026-05-05 14:07 | 21.27539 | 56.75935 | 35716 ft | 448 kts | 270° |
| 2026-05-05 14:08 | 21.27528 | 56.69231 | 35716 ft | 448 kts | 270° |
| 2026-05-05 14:08 | 21.27514 | 56.62582 | 35716 ft | 448 kts | 270° |
| 2026-05-05 14:09 | 21.27498 | 56.55905 | 35718 ft | 448 kts | 270° |
| 2026-05-05 14:09 | 21.27479 | 56.49208 | 35720 ft | 448 kts | 270° |
| 2026-05-05 14:10 | 21.27458 | 56.42533 | 35715 ft | 446 kts | 270° |
| 2026-05-05 14:10 | 21.27434 | 56.35901 | 35717 ft | 447 kts | 270° |
| 2026-05-05 14:11 | 21.27409 | 56.29261 | 35711 ft | 447 kts | 270° |
| 2026-05-05 14:11 | 21.27382 | 56.22596 | 35713 ft | 446 kts | 270° |
| 2026-05-05 14:12 | 21.27350 | 56.15969 | 35714 ft | 446 kts | 270° |
| 2026-05-05 14:12 | 21.27312 | 56.09300 | 35713 ft | 447 kts | 270° |
| 2026-05-05 14:13 | 21.27272 | 56.02694 | 35713 ft | 446 kts | 270° |
| 2026-05-05 14:13 | 21.27230 | 55.96013 | 35714 ft | 447 kts | 270° |
| 2026-05-05 14:14 | 21.27184 | 55.89348 | 35714 ft | 447 kts | 269° |
| 2026-05-05 14:14 | 21.27135 | 55.82730 | 35711 ft | 446 kts | 269° |
| 2026-05-05 14:15 | 21.27083 | 55.76080 | 35714 ft | 446 kts | 269° |
| 2026-05-05 14:15 | 21.27029 | 55.69428 | 35711 ft | 446 kts | 269° |
| 2026-05-05 14:16 | 21.26972 | 55.62764 | 35713 ft | 446 kts | 269° |
| 2026-05-05 14:16 | 21.26912 | 55.56101 | 35713 ft | 446 kts | 269° |
| 2026-05-05 14:17 | 21.26851 | 55.49502 | 35715 ft | 446 kts | 269° |
| 2026-05-05 14:17 | 21.26795 | 55.42824 | 35715 ft | 446 kts | 271° |
| 2026-05-05 14:18 | 21.27231 | 55.36179 | 35712 ft | 447 kts | 274° |
| 2026-05-05 14:18 | 21.27570 | 55.30650 | 35714 ft | 446 kts | 273° |
| 2026-05-05 14:19 | 21.27958 | 55.24056 | 35711 ft | 447 kts | 273° |
| 2026-05-05 14:19 | 21.28346 | 55.17402 | 35711 ft | 446 kts | 273° |
| 2026-05-05 14:20 | 21.28732 | 55.10739 | 35709 ft | 447 kts | 273° |
| 2026-05-05 14:20 | 21.29112 | 55.04128 | 35708 ft | 447 kts | 273° |
| 2026-05-05 14:21 | 21.29491 | 54.97492 | 35709 ft | 447 kts | 273° |
| 2026-05-05 14:21 | 21.29869 | 54.90824 | 35708 ft | 447 kts | 273° |
| 2026-05-05 14:22 | 21.30244 | 54.84167 | 35708 ft | 447 kts | 273° |
| 2026-05-05 14:22 | 21.30613 | 54.77567 | 35708 ft | 447 kts | 273° |
| 2026-05-05 14:23 | 21.30981 | 54.70926 | 35706 ft | 447 kts | 273° |
| 2026-05-05 14:23 | 21.31349 | 54.64258 | 35708 ft | 447 kts | 273° |
| 2026-05-05 14:24 | 21.31714 | 54.57586 | 35705 ft | 447 kts | 273° |
| 2026-05-05 14:24 | 21.32074 | 54.50956 | 35705 ft | 447 kts | 273° |
| 2026-05-05 14:25 | 21.32432 | 54.44314 | 35706 ft | 447 kts | 273° |
| 2026-05-05 14:25 | 21.32789 | 54.37653 | 35707 ft | 446 kts | 272° |
| 2026-05-05 14:26 | 21.33142 | 54.31006 | 35705 ft | 446 kts | 272° |
| 2026-05-05 14:26 | 21.33492 | 54.24362 | 35709 ft | 446 kts | 272° |
| 2026-05-05 14:27 | 21.33838 | 54.17756 | 35703 ft | 446 kts | 272° |
| 2026-05-05 14:27 | 21.34184 | 54.11113 | 35706 ft | 446 kts | 272° |
| 2026-05-05 14:28 | 21.34527 | 54.04458 | 35704 ft | 446 kts | 272° |
| 2026-05-05 14:28 | 21.34867 | 53.97808 | 35708 ft | 446 kts | 272° |
| 2026-05-05 14:29 | 21.35205 | 53.91156 | 35705 ft | 446 kts | 272° |
| 2026-05-05 14:29 | 21.35538 | 53.84537 | 35706 ft | 446 kts | 272° |
| 2026-05-05 14:30 | 21.35870 | 53.77893 | 35709 ft | 446 kts | 272° |
| 2026-05-05 14:30 | 21.36200 | 53.71243 | 35711 ft | 446 kts | 272° |
| 2026-05-05 14:31 | 21.36524 | 53.64649 | 35705 ft | 446 kts | 272° |
| 2026-05-05 14:31 | 21.36848 | 53.58014 | 35707 ft | 446 kts | 272° |
| 2026-05-05 14:32 | 21.37170 | 53.51358 | 35714 ft | 446 kts | 272° |
| 2026-05-05 14:32 | 21.37487 | 53.44757 | 35706 ft | 444 kts | 272° |
| 2026-05-05 14:33 | 21.37802 | 53.38141 | 35709 ft | 444 kts | 272° |
| 2026-05-05 14:33 | 21.38114 | 53.31536 | 35708 ft | 444 kts | 272° |
| 2026-05-05 14:34 | 21.38424 | 53.24914 | 35710 ft | 444 kts | 272° |
| 2026-05-05 14:34 | 21.38729 | 53.18334 | 35708 ft | 444 kts | 272° |
| 2026-05-05 14:35 | 21.39034 | 53.11714 | 35707 ft | 444 kts | 272° |
| 2026-05-05 14:35 | 21.39335 | 53.05110 | 35708 ft | 444 kts | 272° |
| 2026-05-05 14:36 | 21.39634 | 52.98496 | 35704 ft | 444 kts | 272° |
| 2026-05-05 14:36 | 21.39930 | 52.91901 | 35705 ft | 444 kts | 272° |
| 2026-05-05 14:37 | 21.40225 | 52.85264 | 35706 ft | 444 kts | 272° |
| 2026-05-05 14:37 | 21.40517 | 52.78659 | 35706 ft | 444 kts | 272° |
| 2026-05-05 14:38 | 21.40805 | 52.72039 | 35708 ft | 444 kts | 271° |
| 2026-05-05 14:38 | 21.41092 | 52.65413 | 35710 ft | 444 kts | 271° |
| 2026-05-05 14:39 | 21.41375 | 52.58827 | 35709 ft | 442 kts | 271° |
| 2026-05-05 14:39 | 21.41655 | 52.52229 | 35710 ft | 442 kts | 271° |
| 2026-05-05 14:40 | 21.41931 | 52.45673 | 35710 ft | 443 kts | 271° |
| 2026-05-05 14:40 | 21.42206 | 52.39070 | 35711 ft | 443 kts | 271° |
| 2026-05-05 14:41 | 21.42480 | 52.32460 | 35711 ft | 443 kts | 271° |
| 2026-05-05 14:41 | 21.42747 | 52.25917 | 35715 ft | 443 kts | 271° |
| 2026-05-05 14:42 | 21.43015 | 52.19315 | 35712 ft | 442 kts | 271° |
| 2026-05-05 14:42 | 21.43280 | 52.12715 | 35714 ft | 442 kts | 271° |
| 2026-05-05 14:43 | 21.43543 | 52.06109 | 35713 ft | 442 kts | 271° |
| 2026-05-05 14:43 | 21.43801 | 51.99565 | 35716 ft | 442 kts | 271° |
| 2026-05-05 14:44 | 21.44060 | 51.92964 | 35716 ft | 443 kts | 271° |
| 2026-05-05 14:44 | 21.44316 | 51.86345 | 35719 ft | 442 kts | 271° |
| 2026-05-05 14:45 | 21.44569 | 51.79748 | 35719 ft | 442 kts | 271° |
| 2026-05-05 14:45 | 21.44833 | 51.73195 | 35719 ft | 441 kts | 274° |
| 2026-05-05 14:46 | 21.45449 | 51.66626 | 35720 ft | 442 kts | 274° |
| 2026-05-05 14:46 | 21.46034 | 51.60066 | 35719 ft | 441 kts | 274° |
| 2026-05-05 14:47 | 21.46609 | 51.53540 | 35715 ft | 442 kts | 274° |
| 2026-05-05 14:47 | 21.47183 | 51.46988 | 35716 ft | 442 kts | 274° |
| 2026-05-05 14:48 | 21.47757 | 51.40416 | 35717 ft | 442 kts | 274° |
| 2026-05-05 14:48 | 21.48328 | 51.33847 | 35724 ft | 442 kts | 274° |
| 2026-05-05 14:49 | 21.48894 | 51.27303 | 35722 ft | 442 kts | 274° |
| 2026-05-05 14:49 | 21.49458 | 51.20746 | 35722 ft | 441 kts | 273° |
| 2026-05-05 14:50 | 21.50022 | 51.14172 | 35722 ft | 441 kts | 273° |
| 2026-05-05 14:50 | 21.50579 | 51.07640 | 35722 ft | 441 kts | 273° |
| 2026-05-05 14:51 | 21.51137 | 51.01063 | 35726 ft | 441 kts | 273° |
| 2026-05-05 14:51 | 21.51690 | 50.94530 | 35724 ft | 440 kts | 273° |
| 2026-05-05 14:52 | 21.52239 | 50.87998 | 35725 ft | 441 kts | 273° |
| 2026-05-05 14:52 | 21.52785 | 50.81474 | 35725 ft | 441 kts | 273° |
| 2026-05-05 14:53 | 21.53332 | 50.74915 | 35724 ft | 441 kts | 273° |
| 2026-05-05 14:53 | 21.53872 | 50.68406 | 35727 ft | 441 kts | 273° |
| 2026-05-05 14:54 | 21.54411 | 50.61871 | 35728 ft | 441 kts | 273° |
| 2026-05-05 14:54 | 21.54950 | 50.55311 | 35728 ft | 441 kts | 273° |
| 2026-05-05 14:55 | 21.55482 | 50.48799 | 35725 ft | 441 kts | 273° |
| 2026-05-05 14:55 | 21.56015 | 50.42249 | 35725 ft | 441 kts | 273° |
| 2026-05-05 14:56 | 21.56547 | 50.35677 | 35727 ft | 441 kts | 273° |
| 2026-05-05 14:56 | 21.57076 | 50.29108 | 35728 ft | 440 kts | 273° |
| 2026-05-05 14:57 | 21.57599 | 50.22590 | 35731 ft | 440 kts | 273° |
| 2026-05-05 14:57 | 21.58121 | 50.16037 | 35729 ft | 440 kts | 273° |
| 2026-05-05 14:58 | 21.58640 | 50.09502 | 35730 ft | 440 kts | 273° |
| 2026-05-05 14:58 | 21.59159 | 50.02933 | 35730 ft | 440 kts | 273° |
| 2026-05-05 14:59 | 21.59670 | 49.96424 | 35730 ft | 440 kts | 273° |
| 2026-05-05 14:59 | 21.60183 | 49.89859 | 35727 ft | 441 kts | 273° |
| 2026-05-05 15:00 | 21.60607 | 49.84408 | 35729 ft | 441 kts | 273° |
| 2026-05-05 15:00 | 21.61202 | 49.76735 | 35728 ft | 440 kts | 273° |
| 2026-05-05 15:01 | 21.61705 | 49.70196 | 35725 ft | 441 kts | 273° |
| 2026-05-05 15:01 | 21.62209 | 49.63617 | 35730 ft | 441 kts | 273° |
| 2026-05-05 15:02 | 21.62704 | 49.57112 | 35724 ft | 440 kts | 273° |
| 2026-05-05 15:02 | 21.63203 | 49.50538 | 35728 ft | 441 kts | 273° |
| 2026-05-05 15:03 | 21.63698 | 49.43973 | 35726 ft | 441 kts | 273° |
| 2026-05-05 15:03 | 21.64190 | 49.37405 | 35723 ft | 441 kts | 273° |
| 2026-05-05 15:04 | 21.64680 | 49.30845 | 35720 ft | 441 kts | 273° |
| 2026-05-05 15:04 | 21.65163 | 49.24336 | 35721 ft | 441 kts | 273° |
| 2026-05-05 15:05 | 21.65890 | 49.14460 | 35718 ft | 442 kts | 272° |
| 2026-05-05 15:06 | 21.66291 | 49.08986 | 35721 ft | 442 kts | 272° |
| 2026-05-05 15:06 | 21.66849 | 49.01326 | 35721 ft | 442 kts | 272° |
| 2026-05-05 15:07 | 21.67246 | 48.95844 | 35731 ft | 442 kts | 272° |
| 2026-05-05 15:07 | 21.67720 | 48.89276 | 35721 ft | 440 kts | 272° |
| 2026-05-05 15:08 | 21.68187 | 48.82758 | 35718 ft | 440 kts | 272° |
| 2026-05-05 15:08 | 21.68654 | 48.76203 | 35717 ft | 440 kts | 272° |
| 2026-05-05 15:09 | 21.69121 | 48.69624 | 35726 ft | 440 kts | 272° |
| 2026-05-05 15:09 | 21.69584 | 48.63061 | 35725 ft | 440 kts | 272° |
| 2026-05-05 15:10 | 21.70042 | 48.56521 | 35720 ft | 441 kts | 272° |
| 2026-05-05 15:10 | 21.70499 | 48.49961 | 35722 ft | 441 kts | 272° |
| 2026-05-05 15:11 | 21.70955 | 48.43380 | 35722 ft | 441 kts | 272° |
| 2026-05-05 15:11 | 21.71406 | 48.36831 | 35725 ft | 440 kts | 272° |
| 2026-05-05 15:12 | 21.71855 | 48.30276 | 35727 ft | 440 kts | 272° |
| 2026-05-05 15:12 | 21.72299 | 48.23766 | 35716 ft | 439 kts | 272° |
| 2026-05-05 15:13 | 21.72741 | 48.17238 | 35722 ft | 438 kts | 272° |
| 2026-05-05 15:13 | 21.73181 | 48.10696 | 35724 ft | 438 kts | 272° |
| 2026-05-05 15:14 | 21.73613 | 48.04253 | 35725 ft | 438 kts | 272° |
| 2026-05-05 15:14 | 21.74046 | 47.97758 | 35724 ft | 438 kts | 272° |
| 2026-05-05 15:15 | 21.74480 | 47.91210 | 35728 ft | 438 kts | 272° |
| 2026-05-05 15:15 | 21.74909 | 47.84694 | 35730 ft | 438 kts | 272° |
| 2026-05-05 15:16 | 21.75339 | 47.78142 | 35732 ft | 438 kts | 272° |
| 2026-05-05 15:16 | 21.75763 | 47.71627 | 35728 ft | 439 kts | 272° |
| 2026-05-05 15:17 | 21.76605 | 47.65177 | 35711 ft | 442 kts | 288° |
| 2026-05-05 15:17 | 21.79116 | 47.59136 | 35705 ft | 445 kts | 291° |
| 2026-05-05 15:18 | 21.81739 | 47.53098 | 35723 ft | 446 kts | 292° |
| 2026-05-05 15:18 | 21.84397 | 47.47072 | 35741 ft | 446 kts | 292° |
| 2026-05-05 15:19 | 21.87061 | 47.41039 | 35744 ft | 446 kts | 292° |
| 2026-05-05 15:19 | 21.89707 | 47.35041 | 35743 ft | 446 kts | 292° |
| 2026-05-05 15:20 | 21.92356 | 47.29029 | 35736 ft | 443 kts | 292° |
| 2026-05-05 15:20 | 21.94987 | 47.23052 | 35742 ft | 443 kts | 292° |
| 2026-05-05 15:21 | 21.97622 | 47.17058 | 35740 ft | 443 kts | 292° |
| 2026-05-05 15:21 | 22.00256 | 47.11059 | 35745 ft | 443 kts | 292° |
| 2026-05-05 15:22 | 22.02877 | 47.05083 | 35743 ft | 443 kts | 292° |
| 2026-05-05 15:22 | 22.05506 | 46.99079 | 35754 ft | 442 kts | 291° |
| 2026-05-05 15:23 | 22.08108 | 46.93133 | 35750 ft | 440 kts | 291° |
| 2026-05-05 15:23 | 22.10712 | 46.87173 | 35750 ft | 440 kts | 291° |
| 2026-05-05 15:24 | 22.13311 | 46.81217 | 35753 ft | 440 kts | 291° |
| 2026-05-05 15:24 | 22.15898 | 46.75284 | 35753 ft | 440 kts | 291° |
| 2026-05-05 15:25 | 22.18494 | 46.69318 | 35771 ft | 439 kts | 291° |
| 2026-05-05 15:25 | 22.21088 | 46.63354 | 35763 ft | 438 kts | 291° |
| 2026-05-05 15:26 | 22.23667 | 46.57417 | 35772 ft | 438 kts | 291° |
| 2026-05-05 15:26 | 22.26253 | 46.51457 | 35775 ft | 438 kts | 291° |
| 2026-05-05 15:27 | 22.28813 | 46.45547 | 35790 ft | 438 kts | 291° |
| 2026-05-05 15:27 | 22.31402 | 46.39566 | 35792 ft | 438 kts | 291° |
| 2026-05-05 15:28 | 22.33977 | 46.33607 | 35796 ft | 436 kts | 291° |
| 2026-05-05 15:28 | 22.36529 | 46.27696 | 35797 ft | 436 kts | 291° |
| 2026-05-05 15:29 | 22.39079 | 46.21784 | 35792 ft | 436 kts | 291° |
| 2026-05-05 15:29 | 22.41633 | 46.15854 | 35797 ft | 436 kts | 291° |
| 2026-05-05 15:30 | 22.44186 | 46.09919 | 35802 ft | 437 kts | 291° |
| 2026-05-05 15:30 | 22.46743 | 46.03965 | 35798 ft | 435 kts | 290° |
| 2026-05-05 15:31 | 22.49272 | 45.98073 | 35798 ft | 435 kts | 290° |
| 2026-05-05 15:31 | 22.51816 | 45.92136 | 35794 ft | 435 kts | 290° |
| 2026-05-05 15:32 | 22.54365 | 45.86183 | 35791 ft | 435 kts | 290° |
| 2026-05-05 15:32 | 22.56894 | 45.80266 | 35791 ft | 435 kts | 290° |
| 2026-05-05 15:33 | 22.59419 | 45.74352 | 35795 ft | 433 kts | 290° |
| 2026-05-05 15:33 | 22.61929 | 45.68469 | 35798 ft | 432 kts | 290° |
| 2026-05-05 15:34 | 22.64447 | 45.62557 | 35797 ft | 432 kts | 290° |
| 2026-05-05 15:34 | 22.66956 | 45.56660 | 35794 ft | 432 kts | 290° |
| 2026-05-05 15:35 | 22.69469 | 45.50746 | 35802 ft | 433 kts | 290° |
| 2026-05-05 15:35 | 22.71981 | 45.44825 | 35804 ft | 431 kts | 290° |
| 2026-05-05 15:36 | 22.74487 | 45.38916 | 35811 ft | 431 kts | 290° |
| 2026-05-05 15:36 | 22.76976 | 45.33035 | 35808 ft | 432 kts | 289° |
| 2026-05-05 15:37 | 22.79477 | 45.27122 | 35807 ft | 432 kts | 289° |
| 2026-05-05 15:37 | 22.81978 | 45.21198 | 35816 ft | 432 kts | 289° |
| 2026-05-05 15:38 | 22.84464 | 45.15304 | 35820 ft | 430 kts | 289° |
| 2026-05-05 15:38 | 22.86955 | 45.09391 | 35827 ft | 430 kts | 289° |
| 2026-05-05 15:39 | 22.89414 | 45.03546 | 35816 ft | 430 kts | 289° |
| 2026-05-05 15:39 | 22.91902 | 44.97627 | 35820 ft | 430 kts | 289° |
| 2026-05-05 15:40 | 22.94382 | 44.91717 | 35825 ft | 431 kts | 289° |
| 2026-05-05 15:40 | 22.96848 | 44.85833 | 35833 ft | 431 kts | 289° |
| 2026-05-05 15:41 | 22.99323 | 44.79922 | 35830 ft | 431 kts | 289° |
| 2026-05-05 15:41 | 23.01794 | 44.74014 | 35833 ft | 431 kts | 289° |
| 2026-05-05 15:42 | 23.04266 | 44.68093 | 35831 ft | 431 kts | 289° |
| 2026-05-05 15:42 | 23.06727 | 44.62192 | 35835 ft | 431 kts | 289° |
| 2026-05-05 15:43 | 23.09196 | 44.56266 | 35837 ft | 430 kts | 289° |
| 2026-05-05 15:43 | 23.11649 | 44.50370 | 35842 ft | 431 kts | 289° |
| 2026-05-05 15:44 | 23.14109 | 44.44451 | 35845 ft | 431 kts | 289° |
| 2026-05-05 15:44 | 23.16578 | 44.38499 | 35847 ft | 430 kts | 288° |
| 2026-05-05 15:45 | 23.19016 | 44.32618 | 35845 ft | 430 kts | 288° |
| 2026-05-05 15:45 | 23.21458 | 44.26719 | 35854 ft | 430 kts | 288° |
| 2026-05-05 15:46 | 23.23914 | 44.20776 | 35871 ft | 429 kts | 288° |
| 2026-05-05 15:46 | 23.26344 | 44.14891 | 35856 ft | 428 kts | 288° |
| 2026-05-05 15:47 | 23.28773 | 44.09000 | 35863 ft | 428 kts | 288° |
| 2026-05-05 15:47 | 23.31196 | 44.03117 | 35870 ft | 428 kts | 288° |
| 2026-05-05 15:48 | 23.33623 | 43.97216 | 35878 ft | 426 kts | 288° |
| 2026-05-05 15:48 | 23.36030 | 43.91358 | 35881 ft | 426 kts | 288° |
| 2026-05-05 15:49 | 23.38455 | 43.85447 | 35887 ft | 426 kts | 288° |
| 2026-05-05 15:49 | 23.40851 | 43.79598 | 35899 ft | 426 kts | 288° |
| 2026-05-05 15:50 | 23.43269 | 43.73688 | 35914 ft | 426 kts | 288° |
| 2026-05-05 15:50 | 23.45667 | 43.67823 | 35915 ft | 425 kts | 288° |
| 2026-05-05 15:51 | 23.48051 | 43.61980 | 35925 ft | 424 kts | 287° |
| 2026-05-05 15:51 | 23.50444 | 43.56111 | 35932 ft | 423 kts | 287° |
| 2026-05-05 15:52 | 23.52814 | 43.50291 | 35941 ft | 423 kts | 287° |
| 2026-05-05 15:52 | 23.55202 | 43.44418 | 35939 ft | 423 kts | 287° |
| 2026-05-05 15:53 | 23.57580 | 43.38561 | 35951 ft | 421 kts | 287° |
| 2026-05-05 15:53 | 23.59947 | 43.32726 | 35960 ft | 420 kts | 287° |
| 2026-05-05 15:54 | 23.62293 | 43.26932 | 35964 ft | 421 kts | 287° |
| 2026-05-05 15:54 | 23.64251 | 43.22093 | 35982 ft | 420 kts | 287° |
| 2026-05-05 15:55 | 23.66609 | 43.16258 | 35974 ft | 418 kts | 287° |
| 2026-05-05 15:55 | 23.68955 | 43.10444 | 35970 ft | 419 kts | 287° |
| 2026-05-05 15:56 | 23.71273 | 43.04694 | 35967 ft | 419 kts | 287° |
| 2026-05-05 15:56 | 23.73622 | 42.98859 | 35974 ft | 419 kts | 287° |
| 2026-05-05 15:57 | 23.75961 | 42.93042 | 35967 ft | 418 kts | 287° |
| 2026-05-05 15:57 | 23.78280 | 42.87264 | 35966 ft | 418 kts | 287° |
| 2026-05-05 15:58 | 23.80615 | 42.81442 | 35961 ft | 418 kts | 287° |
| 2026-05-05 15:58 | 23.82927 | 42.75668 | 35960 ft | 418 kts | 287° |
| 2026-05-05 15:59 | 23.85259 | 42.69838 | 35958 ft | 418 kts | 287° |
| 2026-05-05 15:59 | 23.87583 | 42.64019 | 35955 ft | 418 kts | 287° |
| 2026-05-05 16:00 | 23.89908 | 42.58191 | 35953 ft | 418 kts | 286° |
| 2026-05-05 16:00 | 23.92207 | 42.52422 | 35946 ft | 417 kts | 286° |
| 2026-05-05 16:01 | 23.94524 | 42.46599 | 35947 ft | 417 kts | 286° |
| 2026-05-05 16:01 | 23.96842 | 42.40766 | 35944 ft | 417 kts | 286° |
| 2026-05-05 16:02 | 23.99162 | 42.34920 | 35944 ft | 418 kts | 286° |
| 2026-05-05 16:02 | 24.01453 | 42.29139 | 35940 ft | 418 kts | 286° |
| 2026-05-05 16:03 | 24.03770 | 42.23284 | 35935 ft | 418 kts | 286° |
| 2026-05-05 16:03 | 24.06063 | 42.17483 | 35936 ft | 418 kts | 286° |
| 2026-05-05 16:04 | 24.08376 | 42.11623 | 35936 ft | 419 kts | 286° |
| 2026-05-05 16:04 | 24.10687 | 42.05762 | 35930 ft | 419 kts | 286° |
| 2026-05-05 16:05 | 24.12972 | 41.99958 | 35931 ft | 419 kts | 286° |
| 2026-05-05 16:05 | 24.15265 | 41.94127 | 35931 ft | 418 kts | 285° |
| 2026-05-05 16:06 | 24.17558 | 41.88287 | 35932 ft | 418 kts | 285° |
| 2026-05-05 16:06 | 24.19853 | 41.82436 | 35933 ft | 417 kts | 285° |
| 2026-05-05 16:07 | 24.22127 | 41.76629 | 35957 ft | 417 kts | 285° |
| 2026-05-05 16:07 | 24.24408 | 41.70798 | 35939 ft | 415 kts | 285° |
| 2026-05-05 16:08 | 24.26671 | 41.65003 | 35854 ft | 412 kts | 285° |
| 2026-05-05 16:08 | 24.27793 | 41.62130 | 35298 ft | 409 kts | 285° |
| 2026-05-05 16:08 | 24.28904 | 41.59281 | 34893 ft | 403 kts | 285° |
| 2026-05-05 16:08 | 24.29998 | 41.56474 | 34531 ft | 396 kts | 285° |
| 2026-05-05 16:09 | 24.31082 | 41.53685 | 33952 ft | 403 kts | 285° |
| 2026-05-05 16:09 | 24.32192 | 41.50836 | 33056 ft | 408 kts | 285° |
| 2026-05-05 16:09 | 24.33308 | 41.47971 | 32271 ft | 410 kts | 286° |
| 2026-05-05 16:09 | 24.34428 | 41.45089 | 31566 ft | 411 kts | 286° |
| 2026-05-05 16:10 | 24.35554 | 41.42199 | 30818 ft | 413 kts | 287° |
| 2026-05-05 16:10 | 24.36685 | 41.39303 | 30118 ft | 412 kts | 287° |
| 2026-05-05 16:10 | 24.37797 | 41.36442 | 29457 ft | 414 kts | 287° |
| 2026-05-05 16:10 | 24.38926 | 41.33529 | 28866 ft | 417 kts | 287° |
| 2026-05-05 16:11 | 24.40062 | 41.30595 | 28288 ft | 417 kts | 287° |
| 2026-05-05 16:11 | 24.43442 | 41.21859 | 26562 ft | 411 kts | 287° |
| 2026-05-05 16:12 | 24.44543 | 41.19011 | 26016 ft | 409 kts | 287° |
| 2026-05-05 16:12 | 24.46754 | 41.13282 | 24904 ft | 406 kts | 287° |
| 2026-05-05 16:13 | 24.50028 | 41.04787 | 23224 ft | 400 kts | 288° |
| 2026-05-05 16:13 | 24.51107 | 41.01985 | 22629 ft | 398 kts | 288° |
| 2026-05-05 16:13 | 24.52180 | 40.99194 | 22084 ft | 395 kts | 288° |
| 2026-05-05 16:14 | 24.54290 | 40.93703 | 21041 ft | 390 kts | 288° |
| 2026-05-05 16:14 | 24.56388 | 40.88237 | 20013 ft | 386 kts | 288° |
| 2026-05-05 16:15 | 24.58454 | 40.82840 | 19016 ft | 372 kts | 288° |
| 2026-05-05 16:15 | 24.60385 | 40.77795 | 18341 ft | 349 kts | 289° |
| 2026-05-05 16:16 | 24.62221 | 40.72993 | 17359 ft | 332 kts | 288° |
| 2026-05-05 16:16 | 24.63965 | 40.68428 | 16401 ft | 318 kts | 288° |
| 2026-05-05 16:17 | 24.65647 | 40.64022 | 15470 ft | 307 kts | 288° |
| 2026-05-05 16:17 | 24.66467 | 40.61870 | 15016 ft | 302 kts | 287° |
| 2026-05-05 16:18 | 24.67784 | 40.57600 | 14125 ft | 290 kts | 282° |
| 2026-05-05 16:18 | 24.68411 | 40.55505 | 13686 ft | 286 kts | 282° |
| 2026-05-05 16:18 | 24.69650 | 40.51418 | 12738 ft | 278 kts | 283° |
| 2026-05-05 16:19 | 24.70260 | 40.49418 | 12255 ft | 274 kts | 283° |
| 2026-05-05 16:19 | 24.70862 | 40.47444 | 11813 ft | 271 kts | 283° |
| 2026-05-05 16:19 | 24.72033 | 40.43600 | 10938 ft | 263 kts | 284° |
| 2026-05-05 16:20 | 24.73180 | 40.39838 | 10087 ft | 256 kts | 284° |
| 2026-05-05 16:20 | 24.74301 | 40.36154 | 9193 ft | 251 kts | 285° |
| 2026-05-05 16:21 | 24.75380 | 40.32603 | 8752 ft | 240 kts | 285° |
| 2026-05-05 16:22 | 24.77041 | 40.27125 | 8505 ft | 258 kts | 285° |
| 2026-05-05 16:22 | 24.78180 | 40.23373 | 8341 ft | 258 kts | 285° |
| 2026-05-05 16:23 | 24.79310 | 40.19645 | 8173 ft | 256 kts | 285° |
| 2026-05-05 16:23 | 24.79873 | 40.17782 | 8089 ft | 255 kts | 285° |
| 2026-05-05 16:23 | 24.80988 | 40.14095 | 7924 ft | 255 kts | 285° |
| 2026-05-05 16:24 | 24.81548 | 40.12242 | 7841 ft | 254 kts | 285° |
| 2026-05-05 16:24 | 24.82106 | 40.10396 | 7754 ft | 254 kts | 285° |
| 2026-05-05 16:24 | 24.83220 | 40.06709 | 7596 ft | 254 kts | 285° |
| 2026-05-05 16:25 | 24.83777 | 40.04862 | 7524 ft | 254 kts | 285° |
| 2026-05-05 16:25 | 24.84877 | 40.01211 | 7417 ft | 244 kts | 285° |
| 2026-05-05 16:25 | 24.85394 | 39.99496 | 7418 ft | 231 kts | 285° |
| 2026-05-05 16:26 | 24.86356 | 39.96301 | 7373 ft | 211 kts | 285° |
| 2026-05-05 16:26 | 24.87301 | 39.93155 | 7386 ft | 221 kts | 285° |
| 2026-05-05 16:27 | 24.87784 | 39.91553 | 7383 ft | 221 kts | 285° |
| 2026-05-05 16:27 | 24.88267 | 39.89946 | 7394 ft | 222 kts | 285° |
| 2026-05-05 16:27 | 24.88754 | 39.88323 | 7403 ft | 224 kts | 285° |
| 2026-05-05 16:27 | 24.89243 | 39.86695 | 7386 ft | 223 kts | 285° |
| 2026-05-05 16:28 | 24.89723 | 39.85092 | 7391 ft | 223 kts | 285° |
| 2026-05-05 16:28 | 24.90209 | 39.83475 | 7390 ft | 221 kts | 285° |
| 2026-05-05 16:28 | 24.90691 | 39.81870 | 7416 ft | 220 kts | 286° |
| 2026-05-05 16:28 | 24.91174 | 39.80256 | 7408 ft | 221 kts | 286° |
| 2026-05-05 16:29 | 24.91657 | 39.78644 | 7403 ft | 222 kts | 287° |
| 2026-05-05 16:29 | 24.92142 | 39.77024 | 7396 ft | 224 kts | 286° |
| 2026-05-05 16:29 | 24.92632 | 39.75387 | 7412 ft | 226 kts | 286° |
| 2026-05-05 16:29 | 24.92885 | 39.73727 | 7343 ft | 223 kts | 264° |
| 2026-05-05 16:30 | 24.92599 | 39.72064 | 7296 ft | 220 kts | 260° |
| 2026-05-05 16:30 | 24.92301 | 39.70404 | 7255 ft | 221 kts | 260° |
| 2026-05-05 16:30 | 24.91995 | 39.68749 | 7208 ft | 220 kts | 260° |
| 2026-05-05 16:30 | 24.91682 | 39.67098 | 7124 ft | 220 kts | 259° |
| 2026-05-05 16:31 | 24.91244 | 39.65496 | 7022 ft | 222 kts | 242° |
| 2026-05-05 16:31 | 24.90161 | 39.64293 | 6967 ft | 229 kts | 213° |
| 2026-05-05 16:31 | 24.88598 | 39.63810 | 6899 ft | 240 kts | 183° |
| 2026-05-05 16:31 | 24.86973 | 39.64046 | 6922 ft | 227 kts | 173° |
| 2026-05-05 16:32 | 24.85488 | 39.64368 | 6863 ft | 211 kts | 174° |
| 2026-05-05 16:32 | 24.84090 | 39.64669 | 6747 ft | 201 kts | 174° |
| 2026-05-05 16:32 | 24.82727 | 39.64958 | 6510 ft | 198 kts | 174° |
| 2026-05-05 16:32 | 24.81369 | 39.65251 | 6350 ft | 197 kts | 173° |
| 2026-05-05 16:33 | 24.80031 | 39.65537 | 6307 ft | 200 kts | 173° |
| 2026-05-05 16:33 | 24.78669 | 39.65830 | 6059 ft | 197 kts | 174° |
| 2026-05-05 16:33 | 24.77338 | 39.66116 | 5830 ft | 194 kts | 174° |
| 2026-05-05 16:33 | 24.76027 | 39.66396 | 5562 ft | 188 kts | 174° |
| 2026-05-05 16:34 | 24.74772 | 39.66665 | 5323 ft | 178 kts | 175° |
| 2026-05-05 16:34 | 24.73599 | 39.66917 | 5115 ft | 167 kts | 175° |
| 2026-05-05 16:34 | 24.72480 | 39.67159 | 4974 ft | 162 kts | 175° |
| 2026-05-05 16:34 | 24.71371 | 39.67395 | 4793 ft | 161 kts | 176° |
| 2026-05-05 16:35 | 24.70274 | 39.67628 | 4599 ft | 161 kts | 177° |
| 2026-05-05 16:35 | 24.69188 | 39.67860 | 4387 ft | 162 kts | 176° |
| 2026-05-05 16:35 | 24.68084 | 39.68097 | 4181 ft | 162 kts | 176° |
| 2026-05-05 16:35 | 24.66981 | 39.68334 | 3965 ft | 161 kts | 175° |
| 2026-05-05 16:36 | 24.65880 | 39.68567 | 3757 ft | 160 kts | 176° |
| 2026-05-05 16:36 | 24.64793 | 39.68802 | 3571 ft | 158 kts | 175° |
| 2026-05-05 16:36 | 24.63732 | 39.69027 | 3360 ft | 152 kts | 176° |
| 2026-05-05 16:36 | 24.62704 | 39.69248 | 3171 ft | 148 kts | 179° |
| 2026-05-05 16:37 | 24.61695 | 39.69459 | 3001 ft | 149 kts | 178° |
| 2026-05-05 16:37 | 24.60662 | 39.69678 | 2752 ft | 153 kts | 176° |
| 2026-05-05 16:37 | 24.59629 | 39.69900 | 2576 ft | 153 kts | 172° |
| 2026-05-05 16:37 | 24.58583 | 39.70125 | 2391 ft | 153 kts | 171° |
| 2026-05-05 16:38 | 24.57535 | 39.70352 | 2189 ft | 152 kts | 169° |
| 2026-05-05 16:38 | 24.56547 | 39.70568 | 2121 ft | 134 kts | 170° |
| 2026-05-05 16:38 | 24.55888 | 39.70706 | 2113 ft | 67 kts | 169° |
| 2026-05-05 16:38 | 24.55459 | 39.70800 | 2112 ft | 46 kts | 165° |
| 2026-05-05 16:39 | 24.55251 | 39.70928 | 2111 ft | 20 kts | 141° |
| 2026-05-05 16:39 | 24.55203 | 39.70972 | 2111 ft | 10 kts | 128° |
| 2026-05-05 16:39 | 24.55215 | 39.71041 | 2110 ft | 8 kts | 65° |
| 2026-05-05 16:39 | 24.55231 | 39.71112 | 2108 ft | 11 kts | 79° |
| 2026-05-05 16:40 | 24.55240 | 39.71172 | 2109 ft | 13 kts | 88° |
| 2026-05-05 16:40 | 24.55243 | 39.71289 | 2107 ft | 11 kts | 81° |
| 2026-05-05 16:40 | 24.55249 | 39.71323 | 2107 ft | 1 kts | 78° |
| 2026-05-05 16:40 | 24.55250 | 39.71328 | 2107 ft | 0 kts | 79° |